Jose Maria Córdova International Airport
SKRG : now visible

Airfield :











YOU CAN JOIN US ON...

 
LOGIN :

Register | Disclaimer

   EN    FR    IT 

 









Legend :    VFR   Marginal VFR   IFR   Intensive IFR   Very Intensive IFR
Visi :
Ceiling :
>= 8 km
>= 3000ft
5 to 8 km
1000 to 3000 ft
1500m to 5 km
500 to 1000 ft
800 to 1500m
200 to 500 ft
< 800m
< 200 ft
Symbols :   Thunderstorms  Fog  Heavy snow  Heavy precipitations  Wind > 20 kt






- Airport Elevation : 6955 ft
- IATA code : MDE


SKRG - Jose Maria Córdova International

CURRENT METAR :
  • 152200Z 08006KT 9999 SCT020TCU SCT200 22/12 A3021 NOSIG RMK TCU/SE/SW

EXPIRED METARs :
  • 152100Z 16008KT 9999 FEW020TCU 22/10 A3021 NOSIG RMK TCU/SE/SW
  • 152000Z 08008KT 9999 FEW020TCU 22/11 A3023 NOSIG RMK TCU/SE/N

TAF TAF SKRG
Valid from the 15 at 18:00 until the 16 at 18:00 UTC


151630Z 1518/1618 12008KT 9999 SCT020 SCT090
TEMPO 1522/1601 6000 DZRA SCT017CB
BECMG 1601/1603 VRB02KT
TEMPO 1608/1612 3000 BR DZ SCT010 TX23/1518Z TN12/1611Z



MET'MAP, your aeronautical weather chart ! - Copyright ORBIFLY December 2007 - Disclaimer

ORBIFLY MET'MAP TEAM :

Programming & Development : Alexandra Zaïnal
Concept & Development : Baudouin d'Aumeries
Co-Development & Prog : Marc-Olivier Méhu
Technical & hardware support : Manuel Goepfert

Contact : metmap@orbifly.com




SOURCES & CREDITS :

   NOAA       Earth
Advisory